createdAt,value
2022-08-11T00:01:51.929Z,99428.64
2022-08-11T00:12:22.163Z,99426.09
2022-08-11T00:22:52.037Z,99422.98
2022-08-11T00:33:22.226Z,99425.90
2022-08-11T00:44:34.983Z,99423.05
2022-08-11T00:55:31.261Z,99427.09
2022-08-11T01:06:35.161Z,99419.35
2022-08-11T01:17:53.626Z,99416.36
2022-08-11T01:28:52.138Z,99419.70
2022-08-11T01:39:59.599Z,99411.12
2022-08-11T01:50:49.180Z,99402.71
2022-08-11T02:01:37.614Z,99396.20
2022-08-11T02:12:19.114Z,99393.48
2022-08-11T02:24:04.075Z,99390.33
2022-08-11T02:34:19.640Z,99389.17
2022-08-11T02:45:01.297Z,99389.95
2022-08-11T02:55:57.597Z,99387.45
2022-08-11T03:06:45.565Z,99390.27
2022-08-11T03:17:26.825Z,99392.75
2022-08-11T03:28:03.889Z,99391.00
2022-08-11T03:38:47.152Z,99395.67
2022-08-11T03:49:32.654Z,99399.03
2022-08-11T04:00:21.645Z,99393.94
2022-08-11T04:11:14.779Z,99390.52
2022-08-11T04:22:14.767Z,99395.66
2022-08-11T04:33:26.411Z,99393.94
2022-08-11T04:44:32.630Z,99390.15
2022-08-11T04:55:45.196Z,99393.86
2022-08-11T05:06:46.097Z,99397.36
2022-08-11T05:17:40.961Z,99395.52
2022-08-11T05:28:34.142Z,99387.45
2022-08-11T05:39:33.865Z,99387.92
2022-08-11T05:50:32.982Z,99395.61
2022-08-11T06:01:03.330Z,99390.45
2022-08-11T06:11:43.603Z,99392.94
2022-08-11T06:22:15.498Z,99400.19
2022-08-11T06:32:46.665Z,99410.91
2022-08-11T06:43:23.626Z,99412.09
2022-08-11T06:54:04.258Z,99413.61
2022-08-11T07:04:43.680Z,99414.82
2022-08-11T07:16:11.086Z,99412.33
2022-08-11T07:26:40.782Z,99406.80
2022-08-11T07:37:16.592Z,99408.25
2022-08-11T07:48:06.537Z,99412.29
2022-08-11T07:59:02.429Z,99406.34
2022-08-11T08:09:55.232Z,99406.02
2022-08-11T08:20:28.072Z,99402.86
2022-08-11T08:30:58.936Z,99396.00
2022-08-11T08:41:31.878Z,99389.02
2022-08-11T08:52:24.226Z,99391.31
2022-08-11T09:02:54.158Z,99378.59
2022-08-11T09:13:23.630Z,99377.94
2022-08-11T09:24:19.171Z,99375.28
2022-08-11T09:34:55.781Z,99368.52
2022-08-11T09:45:25.917Z,99364.56
2022-08-11T09:55:56.710Z,99351.93
2022-08-11T10:06:54.033Z,99341.38
2022-08-11T10:17:26.423Z,99342.73
2022-08-11T10:28:32.974Z,99332.87
2022-08-11T10:38:52.764Z,99323.59
2022-08-11T10:49:23.414Z,99316.45
2022-08-11T10:59:55.482Z,99313.45
2022-08-11T11:10:24.757Z,99303.48
2022-08-11T11:20:59.277Z,99289.77
2022-08-11T11:31:37.308Z,99276.31
2022-08-11T11:42:09.252Z,99263.70
2022-08-11T11:52:40.417Z,99251.04
2022-08-11T12:03:14.971Z,99242.77
2022-08-11T12:13:46.671Z,99229.99
2022-08-11T12:24:33.426Z,99213.66
2022-08-11T12:35:02.934Z,99204.27
2022-08-11T12:45:34.130Z,99200.82
2022-08-11T12:56:25.351Z,99197.85
2022-08-11T13:06:55.066Z,99180.09
2022-08-11T13:17:43.775Z,99171.33
2022-08-11T13:28:14.145Z,99151.75
2022-08-11T13:38:49.855Z,99143.27
2022-08-11T13:49:19.017Z,99143.92
2022-08-11T13:59:54.935Z,99134.51
2022-08-11T14:10:29.653Z,99124.86
2022-08-11T14:21:19.049Z,99178.52
2022-08-11T14:31:51.585Z,99260.93
2022-08-11T14:42:39.104Z,99264.73
2022-08-11T14:53:11.093Z,99272.27
2022-08-11T15:04:35.144Z,99283.61
2022-08-11T15:14:55.820Z,99290.18
2022-08-11T15:25:26.269Z,99270.91
2022-08-11T15:36:14.869Z,99253.98
2022-08-11T15:46:46.744Z,99254.88
2022-08-11T15:57:40.000Z,99248.59
2022-08-11T16:08:11.279Z,99241.41
2022-08-11T16:18:51.579Z,99230.52
2022-08-11T16:29:23.980Z,99218.15
2022-08-11T16:39:53.880Z,99217.48
2022-08-11T16:50:23.769Z,99220.73
2022-08-11T17:00:54.792Z,99224.53
2022-08-11T17:11:44.152Z,99220.84
2022-08-11T17:22:30.493Z,99204.20
2022-08-11T17:33:16.750Z,99203.06
2022-08-11T17:44:04.166Z,99194.42
2022-08-11T17:54:53.836Z,99206.48
2022-08-11T18:05:30.838Z,99200.71
2022-08-11T18:16:17.608Z,99202.77
2022-08-11T18:27:06.828Z,99196.05
2022-08-11T18:37:56.291Z,99199.34
2022-08-11T18:48:46.284Z,99208.91
2022-08-11T18:59:36.859Z,99223.04
2022-08-11T19:10:25.696Z,99231.72
2022-08-11T19:21:14.194Z,99234.06
2022-08-11T19:32:02.425Z,99234.77
2022-08-11T19:42:49.424Z,99230.47
2022-08-11T19:53:37.092Z,99232.85
2022-08-11T20:04:24.997Z,99227.11
2022-08-11T20:15:14.458Z,99217.52
2022-08-11T20:26:14.246Z,99222.39
2022-08-11T20:37:10.722Z,99219.41
2022-08-11T20:48:00.790Z,99218.42
2022-08-11T20:59:13.895Z,99218.90
2022-08-11T21:10:00.972Z,99214.23
2022-08-11T21:20:58.477Z,99216.48
2022-08-11T21:31:49.109Z,99211.83
2022-08-11T21:42:38.275Z,99215.73
2022-08-11T21:53:25.233Z,99222.53
2022-08-11T22:04:11.482Z,99228.17
2022-08-11T22:14:58.186Z,99221.83
2022-08-11T22:25:54.243Z,99222.60
2022-08-11T22:36:47.078Z,99228.41
2022-08-11T22:47:40.594Z,99238.45
2022-08-11T22:58:28.230Z,99231.52
2022-08-11T23:09:15.792Z,99228.23
2022-08-11T23:20:15.942Z,99221.83
2022-08-11T23:31:13.194Z,99212.85
2022-08-11T23:42:03.033Z,99212.41
2022-08-11T23:52:52.059Z,99204.13
